Time;durP1;ratioP1;P1;durP2;ratioP2;P2;SDS_P1;SDS_P2;PMS_P1;PMS_P2;Temp;Humidity;BMP_temperature;BMP_pressure;BME280_temperature;BME280_humidity;BME280_pressure;Samples;Min_cycle;Max_cycle;Signal;HPM_P1;HPM_P2
2023/10/01 00:00:22;;;;;;;;;;;;;;;;;;5007029;28;1899;-61
2023/10/01 00:02:51;;;;;;;;;;;;;;;;;;5003425;28;5009;-61
2023/10/01 00:05:16;;;;;;;;;;;;;;;;;;5008344;28;4969;-59
2023/10/01 00:07:42;;;;;;;;;;;;;;;;;;5008498;28;5153;-61
2023/10/01 00:10:11;;;;;;;;;;;;;;;;;;5007573;28;5220;-60
2023/10/01 00:12:37;;;;;;;;;;;;;;;;;;5004414;28;5099;-60
2023/10/01 00:15:02;;;;;;;;;;;;;;;;;;4999545;28;1334;-63
2023/10/01 00:17:28;;;;;;;;;;;;;;;;;;5007390;28;5106;-59
2023/10/01 00:19:53;;;;;;;;;;;;;;;;;;5005948;28;5123;-59
2023/10/01 00:22:18;;;;;;;;;;;;;;;;;;5007372;28;5098;-60
2023/10/01 00:24:44;;;;;;;;;;;;;;;;;;5003428;28;4494;-61
2023/10/01 00:27:09;;;;;;;;;;;;;;;;;;5008545;28;1175;-61
2023/10/01 00:29:34;;;;;;;;;;;;;;;;;;5002474;28;5036;-60
2023/10/01 00:32:00;;;;;;;;;;;;;;;;;;5005422;28;5140;-59
2023/10/01 00:34:25;;;;;;;;;;;;;;;;;;5005168;28;5081;-60
2023/10/01 00:36:52;;;;;;;;;;;;;;;;;;5023326;28;5239;-60
2023/10/01 00:39:17;;;;;;;;;;;;;;;;;;5002533;28;2011;-61
2023/10/01 00:41:44;;;;;;;;;;;;;;;;;;4994822;28;5029;-61
2023/10/01 00:44:09;;;;;;;;;;;;;;;;;;4999928;28;4505;-60
2023/10/01 00:46:34;;;;;;;;;;;;;;;;;;5005327;28;5145;-61
2023/10/01 00:49:00;;;;;;;;;;;;;;;;;;4999932;28;5198;-60
2023/10/01 00:51:25;;;;;;;;;;;;;;;;;;5005522;28;1307;-59
2023/10/01 00:53:52;;;;;;;;;;;;;;;;;;5004124;28;5009;-60
2023/10/01 00:56:17;;;;;;;;;;;;;;;;;;5002245;28;5078;-61
2023/10/01 00:58:43;;;;;;;;;;;;;;;;;;5007611;28;5028;-63
2023/10/01 01:01:08;;;;;;;;;;;;;;;;;;4997096;28;5026;-60
2023/10/01 01:03:34;;;;;;;;;;;;;;;;;;5005774;28;5029;-62
2023/10/01 01:08:29;;;;;;;;;;;;;;;;;;5002223;28;4907;-62
2023/10/01 01:10:56;;;;;;;;;;;;;;;;;;5006108;28;5096;-59
2023/10/01 01:13:24;;;;;;;;;;;;;;;;;;5007403;28;5229;-61
2023/10/01 01:15:51;;;;;;;;;;;;;;;;;;4997889;28;5191;-61
2023/10/01 01:18:20;;;;;;;;;;;;;;;;;;5006562;28;1934;-62
2023/10/01 01:20:46;;;;;;;;;;;;;;;;;;5005246;28;5157;-60
2023/10/01 01:23:15;;;;;;;;;;;;;;;;;;5004389;28;5220;-63
2023/10/01 01:25:40;;;;;;;;;;;;;;;;;;5012111;28;5286;-60
2023/10/01 01:28:12;;;;;;;;;;;;;;;;;;5006942;28;5183;-60
2023/10/01 01:30:42;;;;;;;;;;;;;;;;;;4994233;28;4872;-61
2023/10/01 01:33:07;;;;;;;;;;;;;;;;;;5004447;28;1319;-61
2023/10/01 01:35:35;;;;;;;;;;;;;;;;;;5005911;28;5091;-63
2023/10/01 01:38:01;;;;;;;;;;;;;;;;;;4986503;28;5108;-60
2023/10/01 01:40:31;;;;;;;;;;;;;;;;;;5020428;28;5443;-59
2023/10/01 01:42:57;;;;;;;;;;;;;;;;;;4990075;28;4729;-59
2023/10/01 01:45:27;;;;;;;;;;;;;;;;;;5005493;28;2226;-60
2023/10/01 01:47:53;;;;;;;;;;;;;;;;;;5001059;28;5058;-61
2023/10/01 01:50:18;;;;;;;;;;;;;;;;;;4994966;28;4986;-59
2023/10/01 01:52:52;;;;;;;;;;;;;;;;;;5004601;28;5007;-60
2023/10/01 01:55:26;;;;;;;;;;;;;;;;;;4994608;28;5037;-61
2023/10/01 01:58:10;;;;;;;;;;;;;;;;;;4995729;28;5123;-60
2023/10/01 02:00:37;;;;;;;;;;;;;;;;;;5004127;28;5104;-61
2023/10/01 02:03:10;;;;;;;;;;;;;;;;;;5007719;28;1248;-62
2023/10/01 02:05:36;;;;;;;;;;;;;;;;;;5003176;28;5266;-60
2023/10/01 02:08:06;;;;;;;;;;;;;;;;;;4989432;28;5169;-60
2023/10/01 02:10:44;;;;;;;;;;;;;;;;;;5002595;28;4861;-60
2023/10/01 02:13:11;;;;;;;;;;;;;;;;;;5000996;28;4453;-60
2023/10/01 02:15:37;;;;;;;;;;;;;;;;;;5007236;28;5037;-61
2023/10/01 02:18:03;;;;;;;;;;;;;;;;;;4988943;28;1127;-62
2023/10/01 02:20:32;;;;;;;;;;;;;;;;;;4995571;28;5242;-62
2023/10/01 02:22:58;;;;;;;;;;;;;;;;;;5017099;28;5036;-61
2023/10/01 02:25:36;;;;;;;;;;;;;;;;;;5006691;28;4963;-61
2023/10/01 02:28:36;;;;;;;;;;;;;;;;;;4999101;28;5059;-60
2023/10/01 02:31:00;;;;;;;;;;;;;;;;;;5000391;28;5047;-61
2023/10/01 02:33:33;;;;;;;;;;;;;;;;;;4995798;28;1038;-62
2023/10/01 02:35:58;;;;;;;;;;;;;;;;;;5001165;28;5065;-61
2023/10/01 02:38:36;;;;;;;;;;;;;;;;;;5004219;28;5087;-61
2023/10/01 02:41:02;;;;;;;;;;;;;;;;;;5002596;28;4849;-63
2023/10/01 02:43:33;;;;;;;;;;;;;;;;;;5009035;28;5048;-60
2023/10/01 02:46:07;;;;;;;;;;;;;;;;;;5006181;28;5074;-63
2023/10/01 02:48:33;;;;;;;;;;;;;;;;;;5004139;28;1244;-61
2023/10/01 02:51:14;;;;;;;;;;;;;;;;;;5002109;28;5890;-60
2023/10/01 02:53:42;;;;;;;;;;;;;;;;;;5004368;28;5006;-62
2023/10/01 02:56:12;;;;;;;;;;;;;;;;;;4994909;28;5001;-62
2023/10/01 02:58:37;;;;;;;;;;;;;;;;;;5016328;28;5054;-61
2023/10/01 03:01:05;;;;;;;;;;;;;;;;;;5004766;28;4488;-62
2023/10/01 03:03:38;;;;;;;;;;;;;;;;;;5001013;28;1302;-60
2023/10/01 03:06:09;;;;;;;;;;;;;;;;;;5010236;28;5145;-59
2023/10/01 03:08:41;;;;;;;;;;;;;;;;;;5008185;28;5027;-61
2023/10/01 03:11:08;;;;;;;;;;;;;;;;;;5009366;28;4853;-60
2023/10/01 03:13:34;;;;;;;;;;;;;;;;;;5023854;28;5133;-60
2023/10/01 03:18:45;;;;;;;;;;;;;;;;;;5007714;28;5126;-62
2023/10/01 03:21:33;;;;;;;;;;;;;;;;;;5010053;28;1130;-61
2023/10/01 03:23:58;;;;;;;;;;;;;;;;;;5007828;28;5095;-60
2023/10/01 03:26:26;;;;;;;;;;;;;;;;;;5000891;28;4989;-60
2023/10/01 03:31:37;;;;;;;;;;;;;;;;;;5004948;28;5323;-60
2023/10/01 03:34:04;;;;;;;;;;;;;;;;;;5008199;28;5163;-61
2023/10/01 03:36:32;;;;;;;;;;;;;;;;;;5003453;28;1094;-60
2023/10/01 03:38:59;;;;;;;;;;;;;;;;;;5005146;28;4951;-61
2023/10/01 03:41:27;;;;;;;;;;;;;;;;;;5001896;28;5002;-62
2023/10/01 03:44:07;;;;;;;;;;;;;;;;;;5004864;28;4660;-62
2023/10/01 03:46:32;;;;;;;;;;;;;;;;;;5002010;28;5121;-61
2023/10/01 03:48:57;;;;;;;;;;;;;;;;;;4998886;28;5097;-61
2023/10/01 03:51:29;;;;;;;;;;;;;;;;;;5006216;28;1172;-60
2023/10/01 03:54:06;;;;;;;;;;;;;;;;;;5007309;28;4996;-59
2023/10/01 03:56:33;;;;;;;;;;;;;;;;;;4996300;28;4997;-61
2023/10/01 03:58:58;;;;;;;;;;;;;;;;;;5003837;28;5134;-59
2023/10/01 04:01:33;;;;;;;;;;;;;;;;;;5008310;28;5132;-59
2023/10/01 04:04:00;;;;;;;;;;;;;;;;;;5001606;28;5105;-59
2023/10/01 04:06:27;;;;;;;;;;;;;;;;;;5008969;28;1142;-60
2023/10/01 04:08:55;;;;;;;;;;;;;;;;;;4987480;28;5030;-61
2023/10/01 04:11:41;;;;;;;;;;;;;;;;;;5002951;28;5044;-59
2023/10/01 04:14:17;;;;;;;;;;;;;;;;;;5006660;28;4757;-60
2023/10/01 04:16:46;;;;;;;;;;;;;;;;;;5008455;28;4484;-61
2023/10/01 04:19:12;;;;;;;;;;;;;;;;;;5004272;28;5051;-62
2023/10/01 04:21:37;;;;;;;;;;;;;;;;;;5006628;28;4935;-60
2023/10/01 04:24:02;;;;;;;;;;;;;;;;;;5020005;28;1164;-61
2023/10/01 04:26:30;;;;;;;;;;;;;;;;;;5002019;28;5125;-60
2023/10/01 04:28:59;;;;;;;;;;;;;;;;;;5008467;28;5302;-59
2023/10/01 04:31:47;;;;;;;;;;;;;;;;;;5017487;28;5122;-61
2023/10/01 04:34:13;;;;;;;;;;;;;;;;;;5002662;28;4659;-61
2023/10/01 04:36:50;;;;;;;;;;;;;;;;;;5001966;28;4564;-62
2023/10/01 04:39:15;;;;;;;;;;;;;;;;;;4997992;28;1973;-60
2023/10/01 04:41:41;;;;;;;;;;;;;;;;;;4999426;28;4653;-59
2023/10/01 04:44:06;;;;;;;;;;;;;;;;;;5002820;28;5066;-60
2023/10/01 04:46:36;;;;;;;;;;;;;;;;;;5004082;28;5181;-59
2023/10/01 04:49:08;;;;;;;;;;;;;;;;;;5005004;28;4632;-59
2023/10/01 04:51:44;;;;;;;;;;;;;;;;;;5002224;28;5128;-60
2023/10/01 04:54:11;;;;;;;;;;;;;;;;;;4998259;28;1192;-62
2023/10/01 04:56:37;;;;;;;;;;;;;;;;;;5008160;28;5071;-59
2023/10/01 04:59:02;;;;;;;;;;;;;;;;;;5000946;28;4469;-61
2023/10/01 05:01:28;;;;;;;;;;;;;;;;;;5005160;28;5231;-60
2023/10/01 05:03:56;;;;;;;;;;;;;;;;;;5002466;28;4943;-62
2023/10/01 05:06:22;;;;;;;;;;;;;;;;;;5011291;28;1336;-59
2023/10/01 05:08:58;;;;;;;;;;;;;;;;;;5005577;28;4932;-61
2023/10/01 05:11:29;;;;;;;;;;;;;;;;;;5019128;28;5081;-59
2023/10/01 05:13:58;;;;;;;;;;;;;;;;;;5007172;28;4484;-62
2023/10/01 05:16:26;;;;;;;;;;;;;;;;;;5006307;28;5031;-63
2023/10/01 05:19:09;;;;;;;;;;;;;;;;;;5007101;28;5054;-64
2023/10/01 05:21:36;;;;;;;;;;;;;;;;;;5003390;28;5147;-63
2023/10/01 05:24:01;;;;;;;;;;;;;;;;;;5008242;28;1268;-60
2023/10/01 05:26:35;;;;;;;;;;;;;;;;;;5002588;28;5103;-61
2023/10/01 05:29:02;;;;;;;;;;;;;;;;;;5007725;28;4688;-62
2023/10/01 05:31:29;;;;;;;;;;;;;;;;;;4995337;28;5462;-61
2023/10/01 05:33:58;;;;;;;;;;;;;;;;;;5002722;28;5162;-61
2023/10/01 05:36:23;;;;;;;;;;;;;;;;;;4997924;28;1244;-63
2023/10/01 05:38:51;;;;;;;;;;;;;;;;;;5008312;28;4960;-63
2023/10/01 05:41:29;;;;;;;;;;;;;;;;;;5003391;28;5248;-61
2023/10/01 05:43:54;;;;;;;;;;;;;;;;;;4999795;28;5020;-60
2023/10/01 05:46:22;;;;;;;;;;;;;;;;;;4998667;28;5075;-61
2023/10/01 05:48:49;;;;;;;;;;;;;;;;;;5003338;28;4600;-62
2023/10/01 05:51:15;;;;;;;;;;;;;;;;;;4995513;28;1330;-62
2023/10/01 05:53:40;;;;;;;;;;;;;;;;;;5002839;28;5032;-62
2023/10/01 05:56:10;;;;;;;;;;;;;;;;;;4999841;28;4932;-61
2023/10/01 05:58:35;;;;;;;;;;;;;;;;;;5002073;28;5104;-62
2023/10/01 06:01:13;;;;;;;;;;;;;;;;;;5006622;28;5153;-63
2023/10/01 06:03:40;;;;;;;;;;;;;;;;;;5002544;28;4967;-61
2023/10/01 06:06:09;;;;;;;;;;;;;;;;;;5001676;28;1128;-61
2023/10/01 06:08:44;;;;;;;;;;;;;;;;;;5003517;28;5041;-65
2023/10/01 06:11:13;;;;;;;;;;;;;;;;;;5000047;28;5023;-61
2023/10/01 06:13:38;;;;;;;;;;;;;;;;;;5007080;28;5128;-61
2023/10/01 06:16:16;;;;;;;;;;;;;;;;;;5010542;28;5000;-65
2023/10/01 06:18:49;;;;;;;;;;;;;;;;;;5006833;28;5225;-62
2023/10/01 06:21:18;;;;;;;;;;;;;;;;;;5005555;28;1052;-61
2023/10/01 06:23:49;;;;;;;;;;;;;;;;;;5010469;28;5114;-60
2023/10/01 06:26:36;;;;;;;;;;;;;;;;;;5010820;28;5066;-62
2023/10/01 06:29:02;;;;;;;;;;;;;;;;;;5006191;28;4991;-61
2023/10/01 06:31:28;;;;;;;;;;;;;;;;;;5006771;28;4472;-61
2023/10/01 06:33:55;;;;;;;;;;;;;;;;;;5003295;28;5042;-61
2023/10/01 06:36:25;;;;;;;;;;;;;;;;;;5007190;28;1216;-62
2023/10/01 06:38:53;;;;;;;;;;;;;;;;;;5008276;28;4831;-61
2023/10/01 06:41:19;;;;;;;;;;;;;;;;;;5002916;28;5157;-61
2023/10/01 06:43:48;;;;;;;;;;;;;;;;;;5005597;28;5259;-61
2023/10/01 06:46:34;;;;;;;;;;;;;;;;;;5015816;28;4581;-61
2023/10/01 06:48:59;;;;;;;;;;;;;;;;;;5003477;28;5907;-61
2023/10/01 06:51:26;;;;;;;;;;;;;;;;;;5004043;28;1130;-61
2023/10/01 06:54:05;;;;;;;;;;;;;;;;;;5003856;28;4937;-61
2023/10/01 06:56:32;;;;;;;;;;;;;;;;;;5006227;28;5021;-62
2023/10/01 07:01:35;;;;;;;;;;;;;;;;;;5021259;28;4513;-62
2023/10/01 07:04:05;;;;;;;;;;;;;;;;;;5005454;28;4506;-62
2023/10/01 07:06:31;;;;;;;;;;;;;;;;;;5002423;28;1118;-64
2023/10/01 07:08:58;;;;;;;;;;;;;;;;;;5007359;28;5231;-62
2023/10/01 07:11:24;;;;;;;;;;;;;;;;;;5008946;28;5042;-61
2023/10/01 07:13:52;;;;;;;;;;;;;;;;;;5002184;28;5130;-61
2023/10/01 07:16:35;;;;;;;;;;;;;;;;;;5006395;28;5096;-61
2023/10/01 07:19:02;;;;;;;;;;;;;;;;;;5005197;28;5186;-61
2023/10/01 07:21:28;;;;;;;;;;;;;;;;;;5009183;28;1422;-62
2023/10/01 07:23:54;;;;;;;;;;;;;;;;;;5008887;28;4919;-60
2023/10/01 07:26:19;;;;;;;;;;;;;;;;;;5009863;28;4462;-61
2023/10/01 07:28:52;;;;;;;;;;;;;;;;;;5003326;28;5131;-62
2023/10/01 07:31:19;;;;;;;;;;;;;;;;;;5001773;28;5055;-61
2023/10/01 07:33:44;;;;;;;;;;;;;;;;;;5007805;28;4731;-60
2023/10/01 07:36:11;;;;;;;;;;;;;;;;;;5005662;28;1167;-61
2023/10/01 07:38:49;;;;;;;;;;;;;;;;;;5008405;28;5017;-61
2023/10/01 07:41:17;;;;;;;;;;;;;;;;;;5008339;28;4668;-60
2023/10/01 07:43:45;;;;;;;;;;;;;;;;;;4999490;28;5058;-62
2023/10/01 07:46:11;;;;;;;;;;;;;;;;;;5007037;28;5089;-60
2023/10/01 07:48:38;;;;;;;;;;;;;;;;;;5002636;28;4723;-63
2023/10/01 07:51:03;;;;;;;;;;;;;;;;;;5006482;28;1168;-63
2023/10/01 07:53:34;;;;;;;;;;;;;;;;;;5007189;28;5116;-61
2023/10/01 07:56:01;;;;;;;;;;;;;;;;;;5002986;28;4851;-60
2023/10/01 07:58:45;;;;;;;;;;;;;;;;;;5002104;28;5115;-61
2023/10/01 08:03:57;;;;;;;;;;;;;;;;;;4986183;28;5041;-63
2023/10/01 08:06:30;;;;;;;;;;;;;;;;;;5006175;28;1117;-62
2023/10/01 08:09:01;;;;;;;;;;;;;;;;;;5006262;28;4437;-62
2023/10/01 08:14:10;;;;;;;;;;;;;;;;;;5006164;28;5320;-62
2023/10/01 08:17:00;;;;;;;;;;;;;;;;;;5007387;28;4877;-62
2023/10/01 08:19:21;;;;;;;;;;;;;;;;;;5005916;28;5065;-62
2023/10/01 08:21:50;;;;;;;;;;;;;;;;;;5007595;28;5013;-61
2023/10/01 08:24:19;;;;;;;;;;;;;;;;;;5003182;28;1287;-62
2023/10/01 08:26:57;;;;;;;;;;;;;;;;;;5001490;28;5121;-62
2023/10/01 08:29:27;;;;;;;;;;;;;;;;;;5006351;28;5048;-62
2023/10/01 08:34:24;;;;;;;;;;;;;;;;;;5002235;28;5113;-62
2023/10/01 08:36:49;;;;;;;;;;;;;;;;;;4999307;28;5783;-61
2023/10/01 08:39:22;;;;;;;;;;;;;;;;;;5003207;28;1910;-60
2023/10/01 08:41:50;;;;;;;;;;;;;;;;;;4998651;28;5075;-62
2023/10/01 08:44:19;;;;;;;;;;;;;;;;;;5006174;28;4636;-62
2023/10/01 08:46:45;;;;;;;;;;;;;;;;;;5021494;28;4617;-62
2023/10/01 08:49:23;;;;;;;;;;;;;;;;;;4996436;28;5166;-62
2023/10/01 08:52:18;;;;;;;;;;;;;;;;;;5000708;28;4672;-63
2023/10/01 08:54:39;;;;;;;;;;;;;;;;;;5000953;28;5129;-63
2023/10/01 08:57:15;;;;;;;;;;;;;;;;;;4988051;28;4897;-64
2023/10/01 08:59:43;;;;;;;;;;;;;;;;;;5004707;28;5114;-62
2023/10/01 09:02:15;;;;;;;;;;;;;;;;;;4964461;28;1197194;-61
2023/10/01 09:04:44;;;;;;;;;;;;;;;;;;5005650;28;4551;-63
2023/10/01 09:07:18;;;;;;;;;;;;;;;;;;4984729;28;5078;-63
2023/10/01 09:10:05;;;;;;;;;;;;;;;;;;4999982;28;4591;-61
2023/10/01 09:12:30;;;;;;;;;;;;;;;;;;5005489;28;3313;-61
2023/10/01 09:14:56;;;;;;;;;;;;;;;;;;5005818;28;4410;-63
2023/10/01 09:17:27;;;;;;;;;;;;;;;;;;5005708;28;5050;-63
2023/10/01 09:19:53;;;;;;;;;;;;;;;;;;4999542;28;5076;-63
2023/10/01 09:23:05;;;;;;;;;;;;;;;;;;5003505;28;4597;-62
2023/10/01 09:25:16;;;;;;;;;;;;;;;;;;4990671;28;5165;-63
2023/10/01 09:28:19;;;;;;;;;;;;;;;;;;5003463;28;5197;-62
2023/10/01 09:31:01;;;;;;;;;;;;;;;;;;4985559;28;5045;-62
2023/10/01 09:33:27;;;;;;;;;;;;;;;;;;5006239;28;3294;-61
2023/10/01 09:36:02;;;;;;;;;;;;;;;;;;5004587;28;4480;-64
2023/10/01 09:38:28;;;;;;;;;;;;;;;;;;5006072;28;5119;-64
2023/10/01 09:40:55;;;;;;;;;;;;;;;;;;5003693;28;5035;-63
2023/10/01 09:43:30;;;;;;;;;;;;;;;;;;5007630;28;5209;-64
2023/10/01 09:46:00;;;;;;;;;;;;;;;;;;5003246;28;5055;-63
2023/10/01 09:51:00;;;;;;;;;;;;;;;;;;5003157;28;4537;-62
2023/10/01 09:53:26;;;;;;;;;;;;;;;;;;5006260;28;5008;-61
2023/10/01 09:55:59;;;;;;;;;;;;;;;;;;5003266;28;4708;-62
2023/10/01 09:58:24;;;;;;;;;;;;;;;;;;5014542;28;5050;-62
2023/10/01 10:00:53;;;;;;;;;;;;;;;;;;5020168;28;5111;-63
2023/10/01 10:03:18;;;;;;;;;;;;;;;;;;5003074;28;3365;-62
2023/10/01 10:05:43;;;;;;;;;;;;;;;;;;5005575;28;5276;-63
2023/10/01 10:08:26;;;;;;;;;;;;;;;;;;5016733;28;5094;-63
2023/10/01 10:10:52;;;;;;;;;;;;;;;;;;5014735;28;5151;-62
2023/10/01 10:13:36;;;;;;;;;;;;;;;;;;5004834;28;5632;-62
2023/10/01 10:19:20;;;;;;;;;;;;;;;;;;4998223;28;5031;-63
2023/10/01 10:22:05;;;;;;;;;;;;;;;;;;5000127;28;5013;-60
2023/10/01 10:24:46;;;;;;;;;;;;;;;;;;5005365;28;1315;-62
2023/10/01 10:27:18;;;;;;;;;;;;;;;;;;4997143;28;5072;-62
2023/10/01 10:29:47;;;;;;;;;;;;;;;;;;5000554;28;4427;-63
2023/10/01 10:32:15;;;;;;;;;;;;;;;;;;4998451;28;4973;-62
2023/10/01 10:35:03;;;;;;;;;;;;;;;;;;4987488;28;5043;-62
2023/10/01 10:37:34;;;;;;;;;;;;;;;;;;5006356;28;5080;-62
2023/10/01 10:40:04;;;;;;;;;;;;;;;;;;5007180;28;5108;-62
2023/10/01 10:42:29;;;;;;;;;;;;;;;;;;5007364;28;1134;-62
2023/10/01 10:45:19;;;;;;;;;;;;;;;;;;5006435;28;4565;-63
2023/10/01 10:48:03;;;;;;;;;;;;;;;;;;5006066;28;5138;-63
2023/10/01 10:50:39;;;;;;;;;;;;;;;;;;5001041;28;4561;-63
2023/10/01 10:53:14;;;;;;;;;;;;;;;;;;5005959;28;4956;-62
2023/10/01 10:55:40;;;;;;;;;;;;;;;;;;5002297;28;5114;-62
2023/10/01 10:58:12;;;;;;;;;;;;;;;;;;4988701;28;5027;-61
2023/10/01 11:00:40;;;;;;;;;;;;;;;;;;5005646;28;5099;-61
2023/10/01 11:03:10;;;;;;;;;;;;;;;;;;5008928;28;1332;-62
2023/10/01 11:05:49;;;;;;;;;;;;;;;;;;4991765;28;5126;-60
2023/10/01 11:08:25;;;;;;;;;;;;;;;;;;5009158;28;5474;-62
2023/10/01 11:10:51;;;;;;;;;;;;;;;;;;5010162;28;4963;-62
2023/10/01 11:13:27;;;;;;;;;;;;;;;;;;5005178;28;5094;-62
2023/10/01 11:15:52;;;;;;;;;;;;;;;;;;5009545;28;5045;-62
2023/10/01 11:18:23;;;;;;;;;;;;;;;;;;5008935;28;1312;-62
2023/10/01 11:21:00;;;;;;;;;;;;;;;;;;5008387;28;4675;-62
2023/10/01 11:23:26;;;;;;;;;;;;;;;;;;5007268;28;5066;-62
2023/10/01 11:25:51;;;;;;;;;;;;;;;;;;5009395;28;4915;-62
2023/10/01 11:28:17;;;;;;;;;;;;;;;;;;5009624;28;5033;-62
2023/10/01 11:30:42;;;;;;;;;;;;;;;;;;4991977;28;5171;-62
2023/10/01 11:35:40;;;;;;;;;;;;;;;;;;5009179;28;4996;-60
2023/10/01 11:38:13;;;;;;;;;;;;;;;;;;5009226;28;4441;-60
2023/10/01 11:43:35;;;;;;;;;;;;;;;;;;5008780;28;5070;-62
2023/10/01 11:46:19;;;;;;;;;;;;;;;;;;5004869;28;5037;-61
2023/10/01 11:48:57;;;;;;;;;;;;;;;;;;5005544;28;4630;-62
2023/10/01 11:51:30;;;;;;;;;;;;;;;;;;5002158;28;1498;-62
2023/10/01 11:54:09;;;;;;;;;;;;;;;;;;4988745;28;4953;-62
2023/10/01 11:56:38;;;;;;;;;;;;;;;;;;5002478;28;5186;-62
2023/10/01 11:59:08;;;;;;;;;;;;;;;;;;5008528;28;5223;-62
2023/10/01 12:01:39;;;;;;;;;;;;;;;;;;5009158;28;4944;-61
2023/10/01 12:04:07;;;;;;;;;;;;;;;;;;5004828;28;5021;-61
2023/10/01 12:06:38;;;;;;;;;;;;;;;;;;5001564;28;1292;-61
2023/10/01 12:09:04;;;;;;;;;;;;;;;;;;5006658;28;5211;-62
2023/10/01 12:11:30;;;;;;;;;;;;;;;;;;5007408;28;4972;-61
2023/10/01 12:14:06;;;;;;;;;;;;;;;;;;5008252;28;5184;-61
2023/10/01 12:16:34;;;;;;;;;;;;;;;;;;5004250;28;5241;-61
2023/10/01 12:19:17;;;;;;;;;;;;;;;;;;5008234;28;5228;-61
2023/10/01 12:21:43;;;;;;;;;;;;;;;;;;5005979;28;5205;-61
2023/10/01 12:24:12;;;;;;;;;;;;;;;;;;5007268;28;1207;-61
2023/10/01 12:26:38;;;;;;;;;;;;;;;;;;5001553;28;4932;-59
2023/10/01 12:29:13;;;;;;;;;;;;;;;;;;5003308;28;4878;-61
2023/10/01 12:31:45;;;;;;;;;;;;;;;;;;5002553;28;4482;-61
2023/10/01 12:34:10;;;;;;;;;;;;;;;;;;5004139;28;5229;-60
2023/10/01 12:36:42;;;;;;;;;;;;;;;;;;4997566;28;5913;-61
2023/10/01 12:41:47;;;;;;;;;;;;;;;;;;5007580;28;5233;-61
2023/10/01 12:44:24;;;;;;;;;;;;;;;;;;4998413;28;5151;-60
2023/10/01 12:46:52;;;;;;;;;;;;;;;;;;5003667;28;5147;-61
2023/10/01 12:49:18;;;;;;;;;;;;;;;;;;5001154;28;4546;-62
2023/10/01 12:51:48;;;;;;;;;;;;;;;;;;4999578;28;5080;-60
2023/10/01 12:54:18;;;;;;;;;;;;;;;;;;4995876;28;3430;-62
2023/10/01 12:56:44;;;;;;;;;;;;;;;;;;4999672;28;5094;-61
2023/10/01 12:59:18;;;;;;;;;;;;;;;;;;5007335;28;4944;-59
2023/10/01 13:01:50;;;;;;;;;;;;;;;;;;5007066;28;4969;-61
2023/10/01 13:04:22;;;;;;;;;;;;;;;;;;5007242;28;5089;-61
2023/10/01 13:06:50;;;;;;;;;;;;;;;;;;5001197;28;4856;-61
2023/10/01 13:12:06;;;;;;;;;;;;;;;;;;5005884;28;4554;-60
2023/10/01 13:14:31;;;;;;;;;;;;;;;;;;5007295;28;4542;-61
2023/10/01 13:17:00;;;;;;;;;;;;;;;;;;5007490;28;5077;-61
2023/10/01 13:19:33;;;;;;;;;;;;;;;;;;5002877;28;5079;-61
2023/10/01 13:21:59;;;;;;;;;;;;;;;;;;5006502;28;5824;-61
2023/10/01 13:24:26;;;;;;;;;;;;;;;;;;5007208;28;1377;-62
2023/10/01 13:27:05;;;;;;;;;;;;;;;;;;5001349;28;4922;-61
2023/10/01 13:29:30;;;;;;;;;;;;;;;;;;5002920;28;5026;-61
2023/10/01 13:32:02;;;;;;;;;;;;;;;;;;5001115;28;5468;-61
2023/10/01 13:34:46;;;;;;;;;;;;;;;;;;5004497;28;5062;-61
2023/10/01 14:10:16;;;;;;;;;;;;;;;;;;5007494;28;985;-63
2023/10/01 14:12:11;;;;;;;;;;;;;;;;;;4989537;28;4525;-63
2023/10/01 14:14:37;;;;;;;;;;;;;;;;;;5021492;28;4971;-62
2023/10/01 14:17:13;;;;;;;;;;;;;;;;;;5003699;28;4916;-63
2023/10/01 14:19:41;;;;;;;;;;;;;;;;;;5006695;28;5028;-63
2023/10/01 14:22:15;;;;;;;;;;;;;;;;;;5013636;28;4617;-63
2023/10/01 14:24:42;;;;;;;;;;;;;;;;;;5006637;28;4977;-62
2023/10/01 14:27:07;;;;;;;;;;;;;;;;;;5014573;28;3526;-63
2023/10/01 14:29:33;;;;;;;;;;;;;;;;;;5003783;28;5027;-63
2023/10/01 14:32:10;;;;;;;;;;;;;;;;;;5004835;28;5124;-63
2023/10/01 14:34:35;;;;;;;;;;;;;;;;;;5004381;28;4987;-63
2023/10/01 14:37:00;;;;;;;;;;;;;;;;;;5005130;28;4947;-62
2023/10/01 14:39:32;;;;;;;;;;;;;;;;;;5008984;28;2963;-63
2023/10/01 14:41:57;;;;;;;;;;;;;;;;;;5008059;28;4960;-62
2023/10/01 14:44:25;;;;;;;;;;;;;;;;;;5002673;28;4419;-62
2023/10/01 14:46:52;;;;;;;;;;;;;;;;;;5008836;28;4477;-62
2023/10/01 14:49:19;;;;;;;;;;;;;;;;;;4999533;28;5180;-63
2023/10/01 14:51:48;;;;;;;;;;;;;;;;;;5002758;28;4951;-62
2023/10/01 14:54:16;;;;;;;;;;;;;;;;;;5022589;28;2190;-63
2023/10/01 14:56:43;;;;;;;;;;;;;;;;;;5004769;28;5125;-62
2023/10/01 14:59:09;;;;;;;;;;;;;;;;;;5001992;28;5104;-61
2023/10/01 15:01:37;;;;;;;;;;;;;;;;;;5002843;28;4535;-62
2023/10/01 15:04:17;;;;;;;;;;;;;;;;;;5003352;28;5120;-62
2023/10/01 15:06:44;;;;;;;;;;;;;;;;;;5007316;28;4491;-62
2023/10/01 15:09:12;;;;;;;;;;;;;;;;;;5002550;28;1103;-62
2023/10/01 15:11:38;;;;;;;;;;;;;;;;;;5004852;28;5007;-62
2023/10/01 15:14:11;;;;;;;;;;;;;;;;;;5007119;28;4600;-61
2023/10/01 15:16:36;;;;;;;;;;;;;;;;;;5001827;28;5116;-61
2023/10/01 15:19:02;;;;;;;;;;;;;;;;;;5005143;28;4947;-62
2023/10/01 15:21:30;;;;;;;;;;;;;;;;;;4992134;28;1173;-61
2023/10/01 15:24:07;;;;;;;;;;;;;;;;;;5008973;28;5093;-62
2023/10/01 15:26:32;;;;;;;;;;;;;;;;;;4980943;28;5107;-62
2023/10/01 15:28:57;;;;;;;;;;;;;;;;;;5005821;28;4684;-62
2023/10/01 15:31:35;;;;;;;;;;;;;;;;;;5008762;28;5184;-63
2023/10/01 15:34:01;;;;;;;;;;;;;;;;;;5009329;28;5131;-63
2023/10/01 15:36:52;;;;;;;;;;;;;;;;;;5009970;28;1149;-62
2023/10/01 15:42:11;;;;;;;;;;;;;;;;;;5003692;28;4591;-62
2023/10/01 15:44:48;;;;;;;;;;;;;;;;;;5004326;28;5001;-62
2023/10/01 15:47:25;;;;;;;;;;;;;;;;;;5002250;28;4601;-62
2023/10/01 15:49:55;;;;;;;;;;;;;;;;;;4995790;28;5048;-62
2023/10/01 15:52:21;;;;;;;;;;;;;;;;;;5002333;28;5085;-62
2023/10/01 15:54:47;;;;;;;;;;;;;;;;;;4990868;28;4500;-62
2023/10/01 15:57:17;;;;;;;;;;;;;;;;;;5003377;28;4992;-62
2023/10/01 15:59:42;;;;;;;;;;;;;;;;;;5003425;28;4926;-62
2023/10/01 16:02:18;;;;;;;;;;;;;;;;;;5004361;28;4991;-62
2023/10/01 16:04:44;;;;;;;;;;;;;;;;;;5000735;28;5096;-62
2023/10/01 16:07:10;;;;;;;;;;;;;;;;;;4990788;28;4650;-62
2023/10/01 16:09:41;;;;;;;;;;;;;;;;;;5004677;28;5017;-62
2023/10/01 16:12:07;;;;;;;;;;;;;;;;;;5002508;28;1260;-62
2023/10/01 16:14:33;;;;;;;;;;;;;;;;;;5004723;28;4830;-62
2023/10/01 16:17:15;;;;;;;;;;;;;;;;;;5001782;28;5199;-61
2023/10/01 16:19:44;;;;;;;;;;;;;;;;;;5003533;28;4953;-62
2023/10/01 16:22:09;;;;;;;;;;;;;;;;;;5003381;28;4598;-62
2023/10/01 16:24:39;;;;;;;;;;;;;;;;;;5008146;28;5023;-60
2023/10/01 16:27:06;;;;;;;;;;;;;;;;;;5002296;28;1429;-62
2023/10/01 16:29:31;;;;;;;;;;;;;;;;;;4998765;28;4588;-62
2023/10/01 16:31:57;;;;;;;;;;;;;;;;;;4994910;28;4970;-61
2023/10/01 16:34:27;;;;;;;;;;;;;;;;;;5005696;28;5061;-62
2023/10/01 16:36:52;;;;;;;;;;;;;;;;;;5019385;28;4604;-62
2023/10/01 16:39:18;;;;;;;;;;;;;;;;;;4985002;28;2010;-62
2023/10/01 16:41:47;;;;;;;;;;;;;;;;;;5007820;28;5036;-63
2023/10/01 16:44:12;;;;;;;;;;;;;;;;;;5021848;28;5114;-63
2023/10/01 16:46:37;;;;;;;;;;;;;;;;;;5007941;28;4907;-62
2023/10/01 16:49:06;;;;;;;;;;;;;;;;;;4996228;28;5261;-62
2023/10/01 16:51:35;;;;;;;;;;;;;;;;;;5017050;28;3377;-60
2023/10/01 16:54:03;;;;;;;;;;;;;;;;;;5006100;28;4511;-62
2023/10/01 16:56:29;;;;;;;;;;;;;;;;;;5006564;28;5044;-61
2023/10/01 16:58:57;;;;;;;;;;;;;;;;;;5006759;28;5044;-62
2023/10/01 17:01:25;;;;;;;;;;;;;;;;;;4988751;28;5077;-61
2023/10/01 17:04:03;;;;;;;;;;;;;;;;;;5014760;28;5163;-63
2023/10/01 17:06:32;;;;;;;;;;;;;;;;;;5004689;28;1104;-64
2023/10/01 17:09:13;;;;;;;;;;;;;;;;;;5006948;28;5033;-63
2023/10/01 17:11:41;;;;;;;;;;;;;;;;;;5007394;28;4848;-63
2023/10/01 17:14:14;;;;;;;;;;;;;;;;;;5007893;28;4864;-62
2023/10/01 17:16:40;;;;;;;;;;;;;;;;;;4984891;28;5156;-61
2023/10/01 17:19:08;;;;;;;;;;;;;;;;;;4998232;28;5062;-62
2023/10/01 17:21:36;;;;;;;;;;;;;;;;;;5006103;28;3136;-62
2023/10/01 17:24:06;;;;;;;;;;;;;;;;;;5007128;28;5057;-61
2023/10/01 17:26:36;;;;;;;;;;;;;;;;;;4997548;28;5056;-62
2023/10/01 17:29:03;;;;;;;;;;;;;;;;;;5003226;28;4654;-61
2023/10/01 17:31:39;;;;;;;;;;;;;;;;;;4998440;28;5311;-61
2023/10/01 17:34:04;;;;;;;;;;;;;;;;;;5001137;28;5147;-62
2023/10/01 17:36:30;;;;;;;;;;;;;;;;;;5004729;28;3403;-61
2023/10/01 17:39:00;;;;;;;;;;;;;;;;;;5009628;28;4404;-62
2023/10/01 17:41:33;;;;;;;;;;;;;;;;;;4999943;28;5046;-61
2023/10/01 17:44:03;;;;;;;;;;;;;;;;;;4982290;28;5067;-69
2023/10/01 17:46:35;;;;;;;;;;;;;;;;;;4982583;28;5150;-62
2023/10/01 17:49:04;;;;;;;;;;;;;;;;;;5003219;28;5268;-63
2023/10/01 17:51:30;;;;;;;;;;;;;;;;;;5015282;28;3088;-63
2023/10/01 17:54:05;;;;;;;;;;;;;;;;;;5004381;28;4456;-64
2023/10/01 17:56:37;;;;;;;;;;;;;;;;;;5003678;28;5005;-66
2023/10/01 17:59:12;;;;;;;;;;;;;;;;;;5004811;28;4624;-66
2023/10/01 18:01:41;;;;;;;;;;;;;;;;;;4992269;28;4996;-62
2023/10/01 18:04:08;;;;;;;;;;;;;;;;;;4995706;28;5107;-66
2023/10/01 18:06:54;;;;;;;;;;;;;;;;;;4995694;28;3353;-63
2023/10/01 18:09:22;;;;;;;;;;;;;;;;;;5014014;28;5136;-65
2023/10/01 18:11:48;;;;;;;;;;;;;;;;;;4990080;28;5277;-66
2023/10/01 18:14:15;;;;;;;;;;;;;;;;;;5009251;28;5059;-67
2023/10/01 18:16:42;;;;;;;;;;;;;;;;;;5007384;28;4938;-65
2023/10/01 18:19:07;;;;;;;;;;;;;;;;;;4986687;28;5342;-69
2023/10/01 18:21:36;;;;;;;;;;;;;;;;;;5004325;28;3206;-69
2023/10/01 18:24:01;;;;;;;;;;;;;;;;;;5007006;28;4593;-69
2023/10/01 18:26:28;;;;;;;;;;;;;;;;;;5004600;28;4499;-72
2023/10/01 18:28:54;;;;;;;;;;;;;;;;;;5006449;28;4719;-67
2023/10/01 18:31:20;;;;;;;;;;;;;;;;;;5002299;28;5044;-66